createdAt,value
2023-02-15T00:01:37.746Z,4.86
2023-02-15T00:04:08.730Z,4.94
2023-02-15T00:06:35.862Z,5.28
2023-02-15T00:09:03.940Z,5.16
2023-02-15T00:11:49.491Z,5.03
2023-02-15T00:14:22.293Z,5.11
2023-02-15T00:16:51.655Z,5.05
2023-02-15T00:19:20.572Z,5.10
2023-02-15T00:21:49.078Z,4.90
2023-02-15T00:24:18.104Z,4.78
2023-02-15T00:26:46.251Z,4.75
2023-02-15T00:29:15.665Z,4.65
2023-02-15T00:31:43.098Z,4.69
2023-02-15T00:34:18.858Z,4.71
2023-02-15T00:36:46.796Z,4.43
2023-02-15T00:39:16.457Z,4.47
2023-02-15T00:41:44.586Z,4.37
2023-02-15T00:44:12.813Z,4.48
2023-02-15T00:46:40.015Z,4.50
2023-02-15T00:49:09.949Z,4.52
2023-02-15T00:51:36.999Z,4.29
2023-02-15T00:54:04.003Z,4.42
2023-02-15T00:56:30.897Z,4.14
2023-02-15T00:58:58.222Z,4.13
2023-02-15T01:01:25.166Z,4.22
2023-02-15T01:03:52.377Z,4.15
2023-02-15T01:06:19.645Z,3.84
2023-02-15T01:08:48.387Z,3.78
2023-02-15T01:11:23.389Z,3.73
2023-02-15T01:13:57.091Z,3.78
2023-02-15T01:16:26.643Z,3.99
2023-02-15T01:18:53.596Z,3.82
2023-02-15T01:21:23.411Z,3.71
2023-02-15T01:23:50.618Z,3.70
2023-02-15T01:26:18.135Z,3.76
2023-02-15T01:28:46.144Z,3.70
2023-02-15T01:31:16.436Z,3.59
2023-02-15T01:33:46.569Z,3.53
2023-02-15T01:36:14.113Z,3.58
2023-02-15T01:38:41.286Z,3.59
2023-02-15T01:41:27.635Z,3.66
2023-02-15T01:43:56.392Z,3.61
2023-02-15T01:46:34.839Z,3.50
2023-02-15T01:49:12.927Z,3.56
2023-02-15T01:51:43.318Z,3.41
2023-02-15T01:54:23.026Z,3.31
2023-02-15T01:56:50.081Z,3.20
2023-02-15T01:59:21.932Z,3.44
2023-02-15T02:01:51.007Z,3.74
2023-02-15T02:04:54.347Z,4.06
2023-02-15T02:07:23.622Z,3.27
2023-02-15T02:09:50.931Z,3.60
2023-02-15T02:12:19.818Z,3.48
2023-02-15T02:14:48.622Z,3.85
2023-02-15T02:17:35.903Z,3.28
2023-02-15T02:20:17.864Z,3.15
2023-02-15T02:23:24.656Z,3.31
2023-02-15T02:26:10.241Z,2.79
2023-02-15T02:28:55.719Z,2.99
2023-02-15T02:31:32.838Z,3.09
2023-02-15T02:34:30.067Z,3.38
2023-02-15T02:37:31.495Z,3.37
2023-02-15T02:40:14.258Z,3.18
2023-02-15T02:42:44.635Z,3.52
2023-02-15T02:45:17.290Z,3.48
2023-02-15T02:47:53.958Z,3.19
2023-02-15T02:50:27.711Z,3.18
2023-02-15T02:52:57.212Z,3.23
2023-02-15T02:55:54.055Z,2.95
2023-02-15T02:58:26.936Z,3.39
2023-02-15T03:00:57.630Z,2.96
2023-02-15T03:03:38.696Z,2.91
2023-02-15T03:06:20.362Z,3.46
2023-02-15T03:08:52.585Z,3.44
2023-02-15T03:11:19.541Z,3.15
2023-02-15T03:13:49.780Z,2.96
2023-02-15T03:16:29.062Z,2.73
2023-02-15T03:19:05.009Z,2.89
2023-02-15T03:21:37.747Z,3.29
2023-02-15T03:24:16.450Z,3.00
2023-02-15T03:26:49.392Z,3.81
2023-02-15T03:29:20.680Z,3.70
2023-02-15T03:31:57.868Z,3.48
2023-02-15T03:34:24.932Z,3.66
2023-02-15T03:37:21.091Z,3.55
2023-02-15T03:39:48.127Z,3.32
2023-02-15T03:42:32.545Z,2.98
2023-02-15T03:45:15.387Z,3.06
2023-02-15T03:47:49.651Z,3.09
2023-02-15T03:50:42.926Z,3.02
2023-02-15T03:53:14.224Z,3.14
2023-02-15T03:55:41.264Z,3.19
2023-02-15T03:58:28.885Z,3.42
2023-02-15T04:01:19.084Z,3.22
2023-02-15T04:03:58.777Z,3.11
2023-02-15T04:06:25.777Z,3.25
2023-02-15T04:09:11.249Z,3.25
2023-02-15T04:11:38.204Z,3.17
2023-02-15T04:14:25.077Z,3.11
2023-02-15T04:16:52.183Z,2.84
2023-02-15T04:19:38.006Z,2.89
2023-02-15T04:22:23.458Z,2.96
2023-02-15T04:25:09.109Z,3.26
2023-02-15T04:27:37.159Z,3.07
2023-02-15T04:30:04.990Z,2.98
2023-02-15T04:32:31.921Z,3.01
2023-02-15T04:34:58.942Z,2.88
2023-02-15T04:37:25.891Z,2.86
2023-02-15T04:39:52.896Z,3.19
2023-02-15T04:42:19.744Z,3.14
2023-02-15T04:44:46.687Z,3.01
2023-02-15T04:47:13.529Z,2.95
2023-02-15T04:49:40.445Z,2.90
2023-02-15T04:52:07.290Z,2.95
2023-02-15T04:54:34.119Z,2.73
2023-02-15T04:57:01.093Z,2.95
2023-02-15T04:59:28.310Z,3.19
2023-02-15T05:01:55.200Z,3.02
2023-02-15T05:04:22.202Z,3.16
2023-02-15T05:06:49.498Z,3.26
2023-02-15T05:09:17.114Z,3.17
2023-02-15T05:11:44.068Z,3.12
2023-02-15T05:14:11.017Z,3.06
2023-02-15T05:16:37.944Z,3.15
2023-02-15T05:19:05.410Z,3.62
2023-02-15T05:21:33.879Z,3.38
2023-02-15T05:24:00.804Z,3.40
2023-02-15T05:26:46.540Z,3.57
2023-02-15T05:29:13.473Z,3.72
2023-02-15T05:31:40.620Z,3.80
2023-02-15T05:34:07.721Z,4.09
2023-02-15T05:36:34.564Z,4.75
2023-02-15T05:39:01.463Z,5.10
2023-02-15T05:41:28.408Z,5.38
2023-02-15T05:43:57.589Z,5.21
2023-02-15T05:46:24.502Z,6.31
2023-02-15T05:48:51.484Z,7.00
2023-02-15T05:51:18.372Z,7.64
2023-02-15T05:53:45.210Z,8.68
2023-02-15T05:56:13.367Z,8.20
2023-02-15T05:58:42.052Z,6.86
2023-02-15T06:01:16.809Z,5.69
2023-02-15T06:03:44.352Z,5.23
2023-02-15T06:06:11.285Z,4.89
2023-02-15T06:08:39.136Z,4.71
2023-02-15T06:11:06.930Z,4.55
2023-02-15T06:13:37.257Z,4.66
2023-02-15T06:16:06.058Z,4.78
2023-02-15T06:18:33.146Z,5.08
2023-02-15T06:21:00.153Z,4.87
2023-02-15T06:23:27.045Z,4.57
2023-02-15T06:25:53.912Z,4.38
2023-02-15T06:28:20.829Z,4.42
2023-02-15T06:30:47.944Z,5.21
2023-02-15T06:33:14.902Z,6.77
2023-02-15T06:35:42.151Z,7.64
2023-02-15T06:38:08.968Z,9.15
2023-02-15T06:40:35.872Z,10.32
2023-02-15T06:43:02.781Z,10.37
2023-02-15T06:45:29.811Z,9.91
2023-02-15T06:47:56.703Z,9.09
2023-02-15T06:50:23.673Z,9.81
2023-02-15T06:52:50.535Z,10.32
2023-02-15T06:55:17.397Z,11.08
2023-02-15T06:57:44.263Z,11.20
2023-02-15T07:00:11.711Z,9.63
2023-02-15T07:02:38.650Z,9.37
2023-02-15T07:05:06.289Z,9.33
2023-02-15T07:07:33.298Z,7.98
2023-02-15T07:10:00.241Z,7.53
2023-02-15T07:12:42.338Z,6.40
2023-02-15T07:15:15.503Z,6.10
2023-02-15T07:17:43.068Z,5.53
2023-02-15T07:20:13.565Z,5.31
2023-02-15T07:22:40.468Z,5.36
2023-02-15T07:25:09.648Z,5.44
2023-02-15T07:27:37.072Z,6.07
2023-02-15T07:30:05.572Z,7.76
2023-02-15T07:32:33.647Z,7.41
2023-02-15T07:35:01.361Z,6.58
2023-02-15T07:37:29.261Z,7.17
2023-02-15T07:39:56.171Z,6.97
2023-02-15T07:42:23.207Z,7.10
2023-02-15T07:44:50.690Z,6.37
2023-02-15T07:47:17.757Z,8.20
2023-02-15T07:49:45.768Z,8.72
2023-02-15T07:52:12.641Z,9.47
2023-02-15T07:54:40.679Z,10.43
2023-02-15T07:57:07.674Z,10.59
2023-02-15T07:59:34.622Z,12.00
2023-02-15T08:02:01.486Z,12.58
2023-02-15T08:04:28.377Z,11.87
2023-02-15T08:06:56.114Z,11.44
2023-02-15T08:09:23.442Z,10.65
2023-02-15T08:11:50.330Z,12.70
2023-02-15T08:14:20.097Z,13.28
2023-02-15T08:16:57.773Z,13.37
2023-02-15T08:19:32.959Z,12.58
2023-02-15T08:22:01.297Z,11.42
2023-02-15T08:24:31.495Z,13.05
2023-02-15T08:26:59.446Z,12.70
2023-02-15T08:29:29.157Z,13.82
2023-02-15T08:32:03.608Z,14.28
2023-02-15T08:34:34.158Z,14.43
2023-02-15T08:37:01.862Z,12.64
2023-02-15T08:39:29.701Z,11.14
2023-02-15T08:41:56.839Z,11.96
2023-02-15T08:44:23.788Z,10.84
2023-02-15T08:46:51.216Z,12.04
2023-02-15T08:49:20.860Z,13.39
2023-02-15T08:51:49.030Z,13.05
2023-02-15T08:54:21.026Z,11.02
2023-02-15T08:56:48.306Z,11.13
2023-02-15T08:59:18.343Z,11.15
2023-02-15T09:01:46.553Z,12.82
2023-02-15T09:04:14.216Z,14.55
2023-02-15T09:06:42.647Z,12.34
2023-02-15T09:09:09.955Z,10.47
2023-02-15T09:11:40.536Z,9.97
2023-02-15T09:14:11.249Z,9.50
2023-02-15T09:16:39.306Z,9.39
2023-02-15T09:19:07.147Z,9.37
2023-02-15T09:21:37.398Z,8.96
2023-02-15T09:24:07.357Z,9.46
2023-02-15T09:26:38.239Z,9.14
2023-02-15T09:29:05.324Z,8.78
2023-02-15T09:31:35.137Z,9.63
2023-02-15T09:34:05.149Z,8.37
2023-02-15T09:36:34.537Z,8.57
2023-02-15T09:39:12.305Z,8.76
2023-02-15T09:41:48.213Z,8.83
2023-02-15T09:44:15.114Z,9.03
2023-02-15T09:47:06.180Z,10.32
2023-02-15T09:49:38.882Z,10.77
2023-02-15T09:52:43.663Z,10.48
2023-02-15T09:55:32.640Z,10.13
2023-02-15T09:58:28.756Z,9.16
2023-02-15T10:01:02.935Z,8.46
2023-02-15T10:03:42.292Z,9.74
2023-02-15T10:06:36.500Z,11.09
2023-02-15T10:09:32.173Z,9.52
2023-02-15T10:12:22.138Z,8.94
2023-02-15T10:14:59.152Z,9.01
2023-02-15T10:17:46.882Z,9.39
2023-02-15T10:20:35.464Z,9.38
2023-02-15T10:23:23.484Z,9.96
2023-02-15T10:26:28.640Z,9.25
2023-02-15T10:29:03.757Z,8.46
2023-02-15T10:31:58.724Z,8.45
2023-02-15T10:34:48.684Z,8.57
2023-02-15T10:37:33.445Z,8.96
2023-02-15T10:41:00.819Z,10.36
2023-02-15T10:43:42.404Z,11.03
2023-02-15T10:46:31.084Z,11.52
2023-02-15T10:49:16.352Z,9.69
2023-02-15T10:51:43.202Z,10.85
2023-02-15T10:54:34.685Z,10.93
2023-02-15T10:57:07.392Z,11.57
2023-02-15T10:59:49.320Z,12.61
2023-02-15T11:02:22.650Z,11.13
2023-02-15T11:05:14.091Z,10.31
2023-02-15T11:07:44.888Z,10.61
2023-02-15T11:10:16.695Z,10.60
2023-02-15T11:12:47.004Z,10.84
2023-02-15T11:15:35.718Z,10.19
2023-02-15T11:18:24.450Z,11.03
2023-02-15T11:20:57.237Z,11.58
2023-02-15T11:23:26.923Z,11.56
2023-02-15T11:26:01.469Z,10.67
2023-02-15T11:28:46.206Z,9.51
2023-02-15T11:31:23.658Z,9.84
2023-02-15T11:34:04.444Z,9.91
2023-02-15T11:36:39.608Z,9.89
2023-02-15T11:39:15.568Z,10.75
2023-02-15T11:41:47.858Z,11.76
2023-02-15T11:44:20.399Z,11.34
2023-02-15T11:46:47.849Z,11.01
2023-02-15T11:49:32.086Z,9.82
2023-02-15T11:52:01.856Z,9.62
2023-02-15T11:54:34.999Z,8.33
2023-02-15T11:57:25.125Z,8.91
2023-02-15T12:00:15.991Z,8.75
2023-02-15T12:02:48.042Z,10.55
2023-02-15T12:05:23.111Z,11.89
2023-02-15T12:08:16.073Z,11.61
2023-02-15T12:11:07.281Z,13.21
2023-02-15T12:13:34.305Z,12.42
2023-02-15T12:16:11.349Z,11.25
2023-02-15T12:18:40.235Z,10.43
2023-02-15T12:21:27.702Z,9.37
2023-02-15T12:23:58.898Z,8.58
2023-02-15T12:26:35.023Z,8.53
2023-02-15T12:29:16.615Z,8.42
2023-02-15T12:31:46.844Z,8.97
2023-02-15T12:34:24.326Z,8.67
2023-02-15T12:36:58.909Z,7.73
2023-02-15T12:39:28.702Z,7.42
2023-02-15T12:41:55.603Z,8.23
2023-02-15T12:44:27.836Z,8.18
2023-02-15T12:47:17.452Z,9.86
2023-02-15T12:49:48.657Z,9.74
2023-02-15T12:52:18.842Z,9.42
2023-02-15T12:54:45.985Z,9.10
2023-02-15T12:57:27.080Z,8.37
2023-02-15T13:00:04.699Z,8.45
2023-02-15T13:02:42.900Z,9.26
2023-02-15T13:05:27.274Z,8.87
2023-02-15T13:08:12.790Z,9.76
2023-02-15T13:11:11.426Z,11.44
2023-02-15T13:14:20.865Z,10.52
2023-02-15T13:16:51.893Z,9.74
2023-02-15T13:19:24.540Z,9.48
2023-02-15T13:21:54.019Z,8.36
2023-02-15T13:24:26.936Z,8.46
2023-02-15T13:27:12.913Z,9.03
2023-02-15T13:29:45.761Z,9.51
2023-02-15T13:32:28.241Z,10.10
2023-02-15T13:34:59.151Z,12.42
2023-02-15T13:37:44.131Z,13.12
2023-02-15T13:40:21.753Z,10.82
2023-02-15T13:42:53.315Z,9.53
2023-02-15T13:45:26.079Z,8.59
2023-02-15T13:48:04.082Z,8.92
2023-02-15T13:51:02.304Z,9.63
2023-02-15T13:53:29.123Z,10.32
2023-02-15T13:56:03.999Z,11.52
2023-02-15T13:58:56.621Z,12.34
2023-02-15T14:01:35.452Z,10.95
2023-02-15T14:04:34.715Z,11.13
2023-02-15T14:07:19.743Z,13.56
2023-02-15T14:10:01.512Z,11.67
2023-02-15T14:12:28.589Z,10.39
2023-02-15T14:15:16.681Z,10.65
2023-02-15T14:18:16.279Z,10.88
2023-02-15T14:20:51.904Z,9.89
2023-02-15T14:23:32.025Z,10.17
2023-02-15T14:26:57.551Z,10.70
2023-02-15T14:29:57.511Z,9.93
2023-02-15T14:32:32.326Z,10.49
2023-02-15T14:35:02.038Z,10.45
2023-02-15T14:37:46.041Z,9.47
2023-02-15T14:40:47.241Z,9.58
2023-02-15T14:43:32.219Z,9.79
2023-02-15T14:46:37.671Z,9.00
2023-02-15T14:49:42.878Z,8.76
2023-02-15T14:52:13.465Z,8.50
2023-02-15T14:54:40.327Z,8.41
2023-02-15T14:57:07.537Z,8.49
2023-02-15T14:59:42.695Z,8.82
2023-02-15T15:02:09.658Z,8.53
2023-02-15T15:04:41.400Z,8.98
2023-02-15T15:07:39.988Z,9.00
2023-02-15T15:10:27.118Z,8.31
2023-02-15T15:13:31.684Z,8.40
2023-02-15T15:16:27.230Z,8.21
2023-02-15T15:18:56.070Z,7.96
2023-02-15T15:21:47.671Z,8.31
2023-02-15T15:24:39.375Z,8.22
2023-02-15T15:28:00.308Z,8.85
2023-02-15T15:30:27.196Z,9.14
2023-02-15T15:32:59.632Z,9.33
2023-02-15T15:35:41.337Z,9.15
2023-02-15T15:38:14.049Z,9.32
2023-02-15T15:41:04.352Z,9.23
2023-02-15T15:44:12.445Z,8.80
2023-02-15T15:46:48.514Z,8.81
2023-02-15T15:49:25.236Z,7.62
2023-02-15T15:51:53.159Z,7.65
2023-02-15T15:54:23.034Z,7.81
2023-02-15T15:57:03.454Z,7.84
2023-02-15T15:59:35.160Z,7.59
2023-02-15T16:02:14.085Z,7.36
2023-02-15T16:04:41.163Z,7.36
2023-02-15T16:07:19.850Z,6.99
2023-02-15T16:10:02.129Z,7.01
2023-02-15T16:12:31.971Z,7.27
2023-02-15T16:15:02.092Z,7.05
2023-02-15T16:17:32.854Z,6.92
2023-02-15T16:20:05.439Z,6.84
2023-02-15T16:22:34.066Z,6.90
2023-02-15T16:25:15.936Z,6.79
2023-02-15T16:27:45.216Z,6.65
2023-02-15T16:30:30.555Z,6.87
2023-02-15T16:33:36.623Z,6.85
2023-02-15T16:36:05.708Z,6.79
2023-02-15T16:38:44.635Z,6.70
2023-02-15T16:41:14.948Z,6.77
2023-02-15T16:43:45.502Z,6.80
2023-02-15T16:46:21.678Z,6.55
2023-02-15T16:48:52.943Z,6.61
2023-02-15T16:51:27.578Z,6.57
2023-02-15T16:53:57.097Z,6.60
2023-02-15T16:56:31.408Z,6.41
2023-02-15T16:58:59.723Z,6.55
2023-02-15T17:01:31.021Z,6.31
2023-02-15T17:04:23.011Z,6.58
2023-02-15T17:07:18.032Z,6.23
2023-02-15T17:09:58.242Z,6.33
2023-02-15T17:12:47.969Z,6.01
2023-02-15T17:15:33.730Z,6.06
2023-02-15T17:18:03.551Z,5.97
2023-02-15T17:20:33.952Z,5.84
2023-02-15T17:23:02.602Z,5.80
2023-02-15T17:25:38.571Z,6.07
2023-02-15T17:28:07.388Z,5.82
2023-02-15T17:30:38.967Z,6.20
2023-02-15T17:33:48.354Z,6.20
2023-02-15T17:36:20.416Z,5.92
2023-02-15T17:39:03.503Z,5.68
2023-02-15T17:41:32.603Z,5.83
2023-02-15T17:43:59.515Z,6.02
2023-02-15T17:46:28.807Z,5.72
2023-02-15T17:48:57.115Z,4.46
2023-02-15T17:51:24.434Z,4.17
2023-02-15T17:54:10.303Z,4.55
2023-02-15T17:56:38.001Z,4.80
2023-02-15T17:59:08.374Z,4.92
2023-02-15T18:01:56.014Z,4.78
2023-02-15T18:04:42.189Z,5.03
2023-02-15T18:07:29.287Z,4.93
2023-02-15T18:10:15.035Z,5.35
2023-02-15T18:12:42.583Z,5.58
2023-02-15T18:15:12.256Z,5.92
2023-02-15T18:17:48.765Z,5.83
2023-02-15T18:20:18.411Z,5.72
2023-02-15T18:22:49.000Z,5.79
2023-02-15T18:25:20.227Z,5.88
2023-02-15T18:27:47.384Z,5.49
2023-02-15T18:30:17.905Z,5.61
2023-02-15T18:32:46.358Z,5.51
2023-02-15T18:35:19.186Z,4.88
2023-02-15T18:37:47.477Z,4.88
2023-02-15T18:40:19.433Z,5.00
2023-02-15T18:42:49.901Z,4.43
2023-02-15T18:45:21.149Z,4.29
2023-02-15T18:47:49.334Z,4.11
2023-02-15T18:50:18.914Z,4.16
2023-02-15T18:52:47.867Z,3.93
2023-02-15T18:55:27.960Z,4.09
2023-02-15T18:57:56.996Z,4.00
2023-02-15T19:00:26.310Z,4.28
2023-02-15T19:02:54.544Z,4.22
2023-02-15T19:05:22.692Z,4.05
2023-02-15T19:07:51.158Z,4.37
2023-02-15T19:10:21.496Z,4.66
2023-02-15T19:12:49.301Z,4.62
2023-02-15T19:15:21.592Z,4.29
2023-02-15T19:17:48.668Z,4.39
2023-02-15T19:20:25.060Z,4.07
2023-02-15T19:22:55.578Z,3.82
2023-02-15T19:25:27.050Z,3.68
2023-02-15T19:27:54.794Z,3.63
2023-02-15T19:30:32.729Z,3.23
2023-02-15T19:33:00.532Z,3.66
2023-02-15T19:35:31.966Z,3.99
2023-02-15T19:38:02.177Z,3.53
2023-02-15T19:40:31.656Z,3.54
2023-02-15T19:42:59.071Z,3.68
2023-02-15T19:45:28.100Z,3.57
2023-02-15T19:47:55.674Z,3.43
2023-02-15T19:50:25.723Z,3.85
2023-02-15T19:52:53.006Z,3.97
2023-02-15T19:55:29.364Z,4.20
2023-02-15T19:57:57.806Z,4.21
2023-02-15T20:00:34.779Z,4.25
2023-02-15T20:03:01.937Z,4.28
2023-02-15T20:05:30.530Z,3.83
2023-02-15T20:07:58.583Z,3.90
2023-02-15T20:10:30.850Z,3.98
2023-02-15T20:12:58.725Z,3.91
2023-02-15T20:15:30.660Z,3.93
2023-02-15T20:17:59.478Z,3.82
2023-02-15T20:20:34.738Z,3.75
2023-02-15T20:23:02.168Z,3.67
2023-02-15T20:25:31.913Z,3.88
2023-02-15T20:27:59.668Z,3.96
2023-02-15T20:30:29.477Z,3.59
2023-02-15T20:32:56.744Z,2.97
2023-02-15T20:35:26.573Z,3.06
2023-02-15T20:37:55.999Z,2.81
2023-02-15T20:40:32.076Z,2.96
2023-02-15T20:42:59.434Z,3.01
2023-02-15T20:45:28.914Z,2.38
2023-02-15T20:47:56.526Z,2.75
2023-02-15T20:50:26.562Z,2.80
2023-02-15T20:52:55.959Z,2.85
2023-02-15T20:55:29.514Z,2.63
2023-02-15T20:57:57.519Z,2.88
2023-02-15T21:00:31.883Z,2.85
2023-02-15T21:03:01.114Z,2.01
2023-02-15T21:05:30.936Z,1.52
2023-02-15T21:07:58.025Z,1.35
2023-02-15T21:10:30.541Z,1.73
2023-02-15T21:13:00.314Z,2.08
2023-02-15T21:15:40.123Z,2.06
2023-02-15T21:18:13.413Z,2.19
2023-02-15T21:20:45.664Z,1.86
2023-02-15T21:23:16.219Z,1.86
2023-02-15T21:25:44.698Z,2.01
2023-02-15T21:28:19.358Z,1.95
2023-02-15T21:30:47.899Z,2.04
2023-02-15T21:33:15.598Z,2.31
2023-02-15T21:35:45.031Z,2.36
2023-02-15T21:38:17.214Z,2.44
2023-02-15T21:40:44.590Z,2.31
2023-02-15T21:43:42.305Z,1.97
2023-02-15T21:46:34.471Z,2.03
2023-02-15T21:49:02.344Z,2.10
2023-02-15T21:51:49.238Z,2.07
2023-02-15T21:54:19.648Z,1.99
2023-02-15T21:56:48.865Z,2.00
2023-02-15T21:59:18.270Z,2.09
2023-02-15T22:01:48.803Z,2.15
2023-02-15T22:04:28.333Z,2.13
2023-02-15T22:06:55.663Z,2.15
2023-02-15T22:09:25.338Z,2.25
2023-02-15T22:11:53.623Z,2.10
2023-02-15T22:14:41.341Z,1.92
2023-02-15T22:17:17.889Z,2.00
2023-02-15T22:19:45.994Z,2.22
2023-02-15T22:22:13.718Z,2.25
2023-02-15T22:24:41.059Z,2.26
2023-02-15T22:27:18.093Z,2.31
2023-02-15T22:29:45.038Z,2.18
2023-02-15T22:32:26.526Z,2.34
2023-02-15T22:34:54.375Z,2.12
2023-02-15T22:37:21.822Z,2.25
2023-02-15T22:39:48.732Z,2.07
2023-02-15T22:42:27.416Z,2.31
2023-02-15T22:44:56.180Z,2.09
2023-02-15T22:47:26.442Z,2.01
2023-02-15T22:49:54.677Z,1.86
2023-02-15T22:52:21.771Z,1.91
2023-02-15T22:54:48.713Z,1.76
2023-02-15T22:57:23.524Z,1.90
2023-02-15T22:59:50.451Z,2.13
2023-02-15T23:02:17.672Z,2.33
2023-02-15T23:04:44.733Z,2.18
2023-02-15T23:07:17.646Z,1.69
2023-02-15T23:09:45.711Z,1.91
2023-02-15T23:12:27.846Z,1.78
2023-02-15T23:14:56.697Z,1.90
2023-02-15T23:17:23.542Z,1.91
2023-02-15T23:19:50.412Z,2.07
2023-02-15T23:22:18.512Z,2.16
2023-02-15T23:24:52.735Z,1.92
2023-02-15T23:27:38.137Z,1.88
2023-02-15T23:30:12.392Z,1.54
2023-02-15T23:32:39.822Z,1.67
2023-02-15T23:35:17.975Z,1.79
2023-02-15T23:37:45.067Z,2.04
2023-02-15T23:40:35.250Z,2.08
2023-02-15T23:43:02.535Z,2.10
2023-02-15T23:45:33.159Z,2.05
2023-02-15T23:48:18.732Z,1.80
2023-02-15T23:50:45.589Z,1.73
2023-02-15T23:53:12.503Z,1.76
2023-02-15T23:55:43.305Z,1.45
2023-02-15T23:58:16.962Z,1.24
